createdAt,value
2019-05-20T00:00:49.757Z,59.00
2019-05-20T00:03:16.655Z,58.20
2019-05-20T00:05:43.541Z,57.20
2019-05-20T00:08:10.587Z,56.10
2019-05-20T00:10:37.368Z,56.30
2019-05-20T00:13:04.163Z,56.30
2019-05-20T00:15:31.000Z,56.70
2019-05-20T00:17:58.006Z,56.30
2019-05-20T00:20:24.873Z,57.60
2019-05-20T00:22:51.686Z,57.40
2019-05-20T00:25:18.558Z,57.80
2019-05-20T00:27:45.344Z,58.90
2019-05-20T00:30:12.477Z,59.00
2019-05-20T00:32:41.838Z,58.50
2019-05-20T00:35:09.202Z,58.80
2019-05-20T00:37:36.034Z,58.80
2019-05-20T00:40:07.888Z,59.10
2019-05-20T00:42:34.910Z,58.80
2019-05-20T00:45:02.478Z,58.70
2019-05-20T00:47:29.284Z,59.60
2019-05-20T00:49:56.060Z,59.60
2019-05-20T00:52:23.167Z,59.20
2019-05-20T00:54:50.026Z,59.80
2019-05-20T00:57:16.887Z,60.30
2019-05-20T00:59:43.750Z,60.10
2019-05-20T01:02:10.991Z,60.80
2019-05-20T01:04:38.594Z,60.80
2019-05-20T01:07:06.101Z,60.60
2019-05-20T01:09:33.064Z,60.50
2019-05-20T01:12:00.163Z,60.30
2019-05-20T01:14:27.158Z,60.80
2019-05-20T01:16:53.980Z,61.10
2019-05-20T01:19:20.764Z,61.40
2019-05-20T01:21:47.564Z,61.90
2019-05-20T01:24:14.811Z,62.30
2019-05-20T01:26:41.608Z,62.30
2019-05-20T01:29:08.419Z,62.90
2019-05-20T01:31:35.205Z,63.00
2019-05-20T01:34:02.006Z,62.90
2019-05-20T01:36:28.840Z,63.60
2019-05-20T01:38:55.634Z,63.50
2019-05-20T01:41:22.696Z,63.50
2019-05-20T01:43:49.747Z,63.40
2019-05-20T01:46:16.541Z,64.00
2019-05-20T01:48:43.352Z,64.20
2019-05-20T01:51:10.380Z,64.60
2019-05-20T01:53:37.168Z,64.50
2019-05-20T01:56:03.971Z,65.00
2019-05-20T01:58:31.152Z,64.80
2019-05-20T02:00:57.943Z,65.10
2019-05-20T02:03:31.794Z,64.60
2019-05-20T02:05:54.312Z,64.50
2019-05-20T02:08:21.109Z,64.00
2019-05-20T02:10:47.885Z,63.30
2019-05-20T02:13:15.198Z,63.90
2019-05-20T02:15:43.824Z,64.20
2019-05-20T02:18:10.671Z,64.90
2019-05-20T02:20:37.498Z,65.20
2019-05-20T02:23:14.574Z,65.10
2019-05-20T02:25:47.442Z,65.50
2019-05-20T02:28:14.803Z,65.50
2019-05-20T02:30:41.590Z,64.50
2019-05-20T02:33:08.907Z,63.30
2019-05-20T02:35:35.793Z,63.70
2019-05-20T02:38:02.829Z,64.00
2019-05-20T02:40:29.945Z,64.80
2019-05-20T02:42:56.930Z,65.30
2019-05-20T02:45:23.815Z,65.90
2019-05-20T02:47:50.731Z,65.60
2019-05-20T02:50:17.524Z,66.70
2019-05-20T02:52:44.634Z,66.90
2019-05-20T02:55:11.480Z,66.70
2019-05-20T02:57:38.321Z,65.40
2019-05-20T03:00:07.466Z,64.60
2019-05-20T03:02:34.712Z,64.00
2019-05-20T03:05:01.495Z,63.90
2019-05-20T03:07:28.386Z,63.50
2019-05-20T03:09:55.323Z,63.30
2019-05-20T03:12:22.103Z,63.60
2019-05-20T03:14:48.909Z,63.00
2019-05-20T03:17:15.833Z,62.60
2019-05-20T03:19:42.618Z,62.40
2019-05-20T03:22:09.509Z,62.00
2019-05-20T03:24:36.287Z,62.00
2019-05-20T03:27:03.080Z,61.90
2019-05-20T03:29:29.991Z,61.50
2019-05-20T03:31:56.780Z,62.00
2019-05-20T03:34:43.583Z,62.60
2019-05-20T03:36:52.290Z,62.10
2019-05-20T03:39:19.179Z,62.30
2019-05-20T03:41:45.999Z,62.80
2019-05-20T03:44:12.893Z,63.40
2019-05-20T03:46:39.851Z,64.60
2019-05-20T03:49:06.649Z,64.90
2019-05-20T03:51:33.431Z,65.50
2019-05-20T03:54:00.274Z,66.00
2019-05-20T03:56:27.160Z,65.80
2019-05-20T03:58:53.942Z,64.70
2019-05-20T04:01:21.122Z,64.40
2019-05-20T04:03:48.194Z,63.50
2019-05-20T04:06:15.014Z,63.70
2019-05-20T04:08:41.974Z,64.10
2019-05-20T04:11:08.755Z,63.70
2019-05-20T04:13:35.554Z,64.20
2019-05-20T04:16:02.380Z,63.70
2019-05-20T04:18:29.195Z,63.70
2019-05-20T04:20:56.187Z,63.30
2019-05-20T04:23:23.216Z,63.40
2019-05-20T04:25:50.397Z,62.80
2019-05-20T04:28:17.177Z,62.80
2019-05-20T04:30:44.218Z,63.70
2019-05-20T04:33:11.005Z,63.20
2019-05-20T04:35:37.818Z,63.00
2019-05-20T04:38:04.939Z,64.00
2019-05-20T04:40:31.822Z,64.40
2019-05-20T04:42:58.656Z,64.60
2019-05-20T04:45:25.624Z,64.80
2019-05-20T04:47:52.423Z,64.80
2019-05-20T04:50:20.034Z,65.40
2019-05-20T04:52:46.842Z,65.50
2019-05-20T04:55:14.031Z,65.20
2019-05-20T04:57:40.905Z,65.40
2019-05-20T05:00:09.035Z,65.40
2019-05-20T05:02:35.843Z,65.40
2019-05-20T05:05:05.782Z,65.80
2019-05-20T05:07:32.588Z,66.10
2019-05-20T05:09:59.367Z,68.70
2019-05-20T05:12:26.495Z,67.30
2019-05-20T05:14:53.316Z,68.60
2019-05-20T05:17:20.359Z,67.30
2019-05-20T05:19:47.140Z,66.50
2019-05-20T05:22:14.007Z,65.70
2019-05-20T05:24:40.911Z,65.90
2019-05-20T05:27:07.931Z,65.80
2019-05-20T05:29:35.002Z,65.50
2019-05-20T05:32:02.050Z,65.70
2019-05-20T05:34:29.128Z,66.20
2019-05-20T05:36:56.184Z,66.70
2019-05-20T05:39:23.275Z,66.80
2019-05-20T05:41:50.143Z,66.40
2019-05-20T05:44:16.954Z,66.50
2019-05-20T05:46:43.744Z,66.60
2019-05-20T05:49:10.571Z,66.10
2019-05-20T05:51:37.811Z,65.70
2019-05-20T05:54:04.730Z,66.20
2019-05-20T05:56:31.595Z,66.60
2019-05-20T05:58:58.445Z,66.50
2019-05-20T06:01:25.226Z,65.60
2019-05-20T06:03:52.239Z,65.30
2019-05-20T06:06:19.061Z,65.20
2019-05-20T06:08:46.018Z,65.40
2019-05-20T06:11:12.816Z,65.50
2019-05-20T06:13:39.718Z,66.10
2019-05-20T06:16:06.836Z,65.80
2019-05-20T06:18:33.641Z,65.40
2019-05-20T06:21:00.533Z,65.00
2019-05-20T06:23:27.322Z,65.10
2019-05-20T06:25:54.110Z,64.70
2019-05-20T06:28:20.975Z,65.60
2019-05-20T06:30:47.863Z,65.30
2019-05-20T06:33:15.029Z,65.30
2019-05-20T06:35:42.245Z,65.60
2019-05-20T06:38:17.103Z,66.60
2019-05-20T06:40:44.234Z,66.70
2019-05-20T06:43:11.092Z,65.80
2019-05-20T06:45:37.924Z,65.60
2019-05-20T06:48:04.809Z,66.90
2019-05-20T06:50:31.629Z,66.90
2019-05-20T06:52:58.424Z,67.10
2019-05-20T06:55:25.237Z,67.10
2019-05-20T06:57:52.221Z,67.10
2019-05-20T07:00:38.607Z,68.00
2019-05-20T07:03:06.410Z,67.30
2019-05-20T07:05:34.505Z,68.00
2019-05-20T07:08:01.610Z,68.20
2019-05-20T07:10:29.077Z,67.30
2019-05-20T07:12:55.869Z,68.80
2019-05-20T07:15:22.899Z,68.70
2019-05-20T07:17:49.683Z,68.70
2019-05-20T07:20:16.498Z,68.80
2019-05-20T07:22:55.083Z,68.30
2019-05-20T07:25:12.944Z,68.30
2019-05-20T07:27:39.754Z,67.50
2019-05-20T07:30:08.390Z,67.60
2019-05-20T07:32:35.192Z,67.40
2019-05-20T07:35:03.444Z,68.00
2019-05-20T07:37:30.479Z,67.80
2019-05-20T07:39:57.603Z,68.90
2019-05-20T07:42:24.999Z,67.60
2019-05-20T07:44:52.053Z,67.60
2019-05-20T07:47:19.983Z,68.20
2019-05-20T07:49:48.064Z,66.70
2019-05-20T07:52:15.785Z,66.50
2019-05-20T07:54:44.382Z,67.20
2019-05-20T07:57:15.888Z,66.40
2019-05-20T07:59:46.799Z,66.80
2019-05-20T08:02:14.193Z,64.90
2019-05-20T08:04:41.166Z,64.00
2019-05-20T08:07:26.540Z,63.70
2019-05-20T08:09:44.674Z,63.70
2019-05-20T08:12:05.813Z,62.00
2019-05-20T08:14:32.614Z,62.40
2019-05-20T08:16:59.440Z,63.20
2019-05-20T08:19:26.239Z,61.80
2019-05-20T08:21:53.229Z,62.00
2019-05-20T08:24:20.042Z,62.80
2019-05-20T08:26:46.914Z,62.40
2019-05-20T08:29:14.130Z,61.10
2019-05-20T08:31:40.926Z,61.40
2019-05-20T08:34:08.020Z,61.30
2019-05-20T08:36:35.296Z,59.80
2019-05-20T08:39:02.380Z,60.10
2019-05-20T08:41:29.195Z,60.10
2019-05-20T08:43:56.329Z,60.00
2019-05-20T08:46:23.149Z,59.50
2019-05-20T08:48:50.014Z,60.70
2019-05-20T08:51:17.246Z,60.00
2019-05-20T08:53:44.066Z,60.10
2019-05-20T08:56:10.882Z,60.50
2019-05-20T08:58:37.801Z,58.40
2019-05-20T09:01:04.696Z,59.30
2019-05-20T09:03:31.983Z,56.90
2019-05-20T09:05:59.439Z,58.60
2019-05-20T09:08:26.234Z,56.60
2019-05-20T09:10:53.197Z,56.90
2019-05-20T09:13:20.190Z,56.70
2019-05-20T09:15:47.027Z,55.70
2019-05-20T09:18:13.806Z,55.10
2019-05-20T09:20:40.810Z,53.90
2019-05-20T09:23:07.799Z,54.40
2019-05-20T09:25:34.680Z,53.90
2019-05-20T09:28:02.272Z,53.40
2019-05-20T09:30:29.052Z,53.90
2019-05-20T09:32:56.434Z,53.90
2019-05-20T09:35:23.315Z,52.60
2019-05-20T09:37:50.176Z,52.70
2019-05-20T09:40:37.946Z,53.50
2019-05-20T09:43:05.749Z,53.40
2019-05-20T09:45:32.873Z,52.80
2019-05-20T09:47:59.772Z,51.20
2019-05-20T09:50:26.554Z,50.50
2019-05-20T09:52:53.399Z,49.30
2019-05-20T09:55:20.681Z,47.70
2019-05-20T09:57:47.767Z,49.30
2019-05-20T10:00:15.370Z,50.90
2019-05-20T10:02:42.585Z,51.70
2019-05-20T10:05:10.095Z,51.70
2019-05-20T10:07:37.015Z,51.10
2019-05-20T10:10:07.120Z,51.30
2019-05-20T10:12:45.078Z,51.30
2019-05-20T10:15:04.902Z,50.60
2019-05-20T10:17:32.301Z,50.10
2019-05-20T10:19:59.167Z,48.60
2019-05-20T10:22:25.970Z,47.70
2019-05-20T10:24:53.049Z,47.60
2019-05-20T10:27:19.987Z,48.70
2019-05-20T10:29:46.797Z,48.00
2019-05-20T10:32:13.913Z,49.20
2019-05-20T10:34:40.697Z,49.50
2019-05-20T10:37:07.663Z,49.20
2019-05-20T10:39:34.701Z,49.60
2019-05-20T10:42:01.490Z,49.00
2019-05-20T10:44:28.502Z,48.30
2019-05-20T10:46:55.522Z,47.80
2019-05-20T10:49:22.624Z,47.10
2019-05-20T10:51:49.406Z,46.20
2019-05-20T10:54:16.597Z,46.20
2019-05-20T10:56:43.583Z,45.50
2019-05-20T10:59:12.070Z,45.80
2019-05-20T11:01:39.396Z,47.40
2019-05-20T11:04:06.193Z,46.60
2019-05-20T11:06:33.308Z,46.70
2019-05-20T11:09:13.073Z,46.00
2019-05-20T11:11:29.158Z,45.00
2019-05-20T11:13:55.965Z,43.90
2019-05-20T11:16:22.797Z,44.10
2019-05-20T11:18:49.578Z,44.30
2019-05-20T11:21:16.365Z,45.70
2019-05-20T11:23:43.217Z,43.90
2019-05-20T11:26:10.016Z,44.70
2019-05-20T11:28:36.810Z,44.70
2019-05-20T11:31:03.890Z,42.90
2019-05-20T11:33:30.785Z,43.20
2019-05-20T11:35:57.682Z,43.00
2019-05-20T11:38:24.609Z,43.30
2019-05-20T11:40:52.288Z,43.00
2019-05-20T11:43:19.388Z,41.70
2019-05-20T11:45:46.205Z,40.60
2019-05-20T11:48:13.111Z,39.30
2019-05-20T11:50:39.993Z,39.10
2019-05-20T11:53:07.085Z,40.10
2019-05-20T11:55:34.196Z,39.50
2019-05-20T11:58:14.492Z,38.70
2019-05-20T12:00:29.807Z,38.60
2019-05-20T12:02:56.608Z,39.40
2019-05-20T12:05:23.704Z,38.20
2019-05-20T12:07:50.822Z,39.00
2019-05-20T12:10:18.223Z,40.00
2019-05-20T12:12:46.127Z,39.90
2019-05-20T12:15:14.526Z,39.40
2019-05-20T12:17:41.317Z,38.70
2019-05-20T12:20:11.312Z,37.10
2019-05-20T12:22:37.991Z,38.00
2019-05-20T12:25:06.669Z,38.50
2019-05-20T12:27:33.517Z,38.60
2019-05-20T12:30:00.366Z,36.80
2019-05-20T12:32:27.142Z,38.40
2019-05-20T12:34:53.959Z,39.00
2019-05-20T12:37:21.164Z,38.40
2019-05-20T12:40:05.540Z,39.10
2019-05-20T12:42:17.081Z,38.50
2019-05-20T12:44:43.969Z,38.20
2019-05-20T12:47:10.767Z,37.20
2019-05-20T12:49:37.681Z,37.60
2019-05-20T12:52:05.211Z,37.30
2019-05-20T12:54:32.294Z,37.10
2019-05-20T12:56:59.347Z,37.40
2019-05-20T12:59:26.183Z,35.60
2019-05-20T13:01:52.978Z,36.00
2019-05-20T13:04:19.786Z,36.80
2019-05-20T13:06:46.586Z,36.90
2019-05-20T13:09:13.499Z,35.10
2019-05-20T13:11:40.281Z,35.80
2019-05-20T13:14:07.119Z,36.10
2019-05-20T13:16:34.161Z,36.50
2019-05-20T13:19:01.002Z,36.10
2019-05-20T13:21:27.985Z,35.60
2019-05-20T13:23:54.799Z,36.10
2019-05-20T13:26:21.583Z,36.00
2019-05-20T13:28:48.414Z,35.50
2019-05-20T13:31:15.246Z,35.70
2019-05-20T13:33:42.013Z,35.30
2019-05-20T13:36:08.896Z,35.70
2019-05-20T13:38:35.743Z,36.10
2019-05-20T13:41:02.582Z,35.10
2019-05-20T13:43:29.493Z,35.10
2019-05-20T13:45:56.285Z,34.60
2019-05-20T13:48:23.285Z,33.90
2019-05-20T13:50:50.361Z,34.50
2019-05-20T13:53:19.947Z,34.50
2019-05-20T13:55:46.727Z,33.00
2019-05-20T13:58:13.919Z,32.60
2019-05-20T14:00:41.809Z,32.90
2019-05-20T14:03:09.172Z,33.20
2019-05-20T14:05:36.001Z,32.80
2019-05-20T14:08:02.778Z,32.00
2019-05-20T14:10:29.737Z,31.90
2019-05-20T14:12:56.522Z,32.20
2019-05-20T14:15:23.631Z,32.50
2019-05-20T14:17:50.721Z,33.20
2019-05-20T14:20:18.306Z,34.00
2019-05-20T14:22:45.109Z,34.40
2019-05-20T14:25:12.627Z,34.10
2019-05-20T14:27:39.519Z,34.30
2019-05-20T14:30:07.792Z,33.90
2019-05-20T14:32:34.934Z,33.90
2019-05-20T14:35:03.014Z,33.70
2019-05-20T14:37:30.101Z,35.20
2019-05-20T14:39:56.919Z,35.70
2019-05-20T14:42:25.543Z,35.00
2019-05-20T14:44:52.376Z,34.30
2019-05-20T14:47:19.546Z,34.50
2019-05-20T14:49:46.325Z,33.90
2019-05-20T14:52:13.113Z,33.20
2019-05-20T14:54:40.252Z,33.30
2019-05-20T14:57:07.085Z,32.80
2019-05-20T14:59:34.024Z,32.90
2019-05-20T15:02:01.039Z,33.30
2019-05-20T15:04:28.015Z,32.40
2019-05-20T15:06:55.136Z,33.50
2019-05-20T15:09:21.960Z,33.40
2019-05-20T15:11:48.930Z,32.50
2019-05-20T15:14:15.848Z,32.80
2019-05-20T15:16:42.724Z,31.80
2019-05-20T15:19:09.539Z,30.60
2019-05-20T15:21:36.646Z,30.80
2019-05-20T15:24:03.479Z,31.90
2019-05-20T15:26:30.749Z,31.70
2019-05-20T15:28:57.542Z,31.60
2019-05-20T15:31:24.441Z,31.70
2019-05-20T15:33:51.213Z,32.10
2019-05-20T15:36:18.064Z,31.10
2019-05-20T15:38:45.480Z,31.00
2019-05-20T15:41:12.306Z,31.50
2019-05-20T15:43:39.128Z,30.00
2019-05-20T15:46:05.720Z,30.80
2019-05-20T15:48:32.575Z,31.30
2019-05-20T15:50:59.711Z,30.30
2019-05-20T15:53:26.505Z,32.00
2019-05-20T15:55:53.298Z,31.60
2019-05-20T15:58:23.559Z,32.20
2019-05-20T16:00:49.018Z,32.50
2019-05-20T16:03:16.237Z,32.60
2019-05-20T16:05:43.618Z,32.20
2019-05-20T16:08:10.550Z,32.30
2019-05-20T16:10:37.333Z,32.90
2019-05-20T16:13:04.138Z,33.40
2019-05-20T16:15:30.973Z,33.10
2019-05-20T16:17:57.770Z,33.50
2019-05-20T16:20:24.808Z,32.50
2019-05-20T16:22:51.651Z,32.70
2019-05-20T16:25:18.443Z,32.80
2019-05-20T16:27:45.536Z,32.00
2019-05-20T16:30:13.434Z,32.80
2019-05-20T16:32:40.646Z,32.80
2019-05-20T16:35:08.240Z,31.90
2019-05-20T16:37:35.110Z,33.00
2019-05-20T16:40:06.614Z,32.60
2019-05-20T16:42:33.402Z,31.70
2019-05-20T16:45:00.262Z,30.60
2019-05-20T16:47:27.051Z,31.00
2019-05-20T16:49:53.885Z,30.80
2019-05-20T16:52:21.030Z,29.80
2019-05-20T16:54:47.814Z,30.50
2019-05-20T16:57:15.019Z,30.30
2019-05-20T16:59:42.276Z,30.50
2019-05-20T17:02:09.189Z,30.20
2019-05-20T17:04:35.998Z,30.20
2019-05-20T17:07:03.439Z,30.20
2019-05-20T17:09:30.307Z,30.00
2019-05-20T17:11:57.141Z,29.30
2019-05-20T17:14:24.022Z,29.70
2019-05-20T17:16:50.812Z,29.80
2019-05-20T17:19:17.609Z,30.20
2019-05-20T17:21:44.801Z,31.20
2019-05-20T17:24:11.592Z,31.80
2019-05-20T17:26:38.409Z,31.30
2019-05-20T17:29:05.898Z,31.70
2019-05-20T17:31:32.761Z,32.50
2019-05-20T17:33:59.552Z,32.60
2019-05-20T17:36:26.432Z,32.70
2019-05-20T17:38:53.190Z,33.20
2019-05-20T17:41:19.974Z,33.70
2019-05-20T17:43:47.550Z,34.30
2019-05-20T17:46:14.676Z,34.10
2019-05-20T17:48:41.836Z,34.00
2019-05-20T17:51:09.018Z,33.90
2019-05-20T17:53:35.823Z,34.60
2019-05-20T17:56:03.005Z,34.30
2019-05-20T17:58:29.792Z,34.60
2019-05-20T18:01:13.367Z,33.90
2019-05-20T18:03:25.347Z,33.70
2019-05-20T18:05:52.839Z,34.20
2019-05-20T18:08:19.639Z,34.10
2019-05-20T18:10:46.493Z,33.80
2019-05-20T18:13:13.693Z,34.40
2019-05-20T18:15:40.784Z,34.60
2019-05-20T18:18:07.581Z,34.90
2019-05-20T18:20:34.385Z,34.60
2019-05-20T18:23:01.336Z,34.80
2019-05-20T18:25:28.148Z,34.60
2019-05-20T18:27:54.991Z,34.60
2019-05-20T18:30:21.797Z,35.50
2019-05-20T18:32:48.580Z,35.20
2019-05-20T18:35:15.505Z,35.20
2019-05-20T18:37:42.325Z,35.70
2019-05-20T18:40:14.316Z,36.10
2019-05-20T18:42:38.483Z,36.10
2019-05-20T18:45:06.644Z,35.80
2019-05-20T18:47:33.431Z,36.00
2019-05-20T18:50:00.252Z,36.20
2019-05-20T18:52:27.207Z,36.50
2019-05-20T18:54:54.005Z,36.90
2019-05-20T18:57:20.913Z,37.20
2019-05-20T18:59:47.760Z,37.10
2019-05-20T19:02:14.556Z,37.10
2019-05-20T19:04:41.486Z,37.50
2019-05-20T19:07:08.491Z,37.30
2019-05-20T19:09:35.324Z,37.70
2019-05-20T19:12:02.186Z,38.00
2019-05-20T19:14:28.992Z,38.20
2019-05-20T19:16:55.784Z,38.30
2019-05-20T19:19:22.587Z,38.90
2019-05-20T19:21:49.577Z,39.30
2019-05-20T19:24:16.379Z,39.70
2019-05-20T19:26:43.561Z,39.00
2019-05-20T19:29:10.350Z,39.30
2019-05-20T19:31:37.177Z,39.10
2019-05-20T19:34:04.129Z,39.70
2019-05-20T19:36:30.922Z,40.10
2019-05-20T19:38:58.088Z,40.40
2019-05-20T19:41:25.309Z,40.30
2019-05-20T19:43:52.145Z,40.60
2019-05-20T19:46:18.974Z,40.40
2019-05-20T19:48:46.024Z,40.40
2019-05-20T19:51:13.378Z,40.80
2019-05-20T19:53:40.464Z,40.90
2019-05-20T19:56:07.577Z,40.90
2019-05-20T19:58:34.372Z,41.00
2019-05-20T20:01:01.360Z,40.90
2019-05-20T20:03:28.648Z,41.30
2019-05-20T20:05:55.447Z,41.60
2019-05-20T20:08:22.278Z,41.50
2019-05-20T20:10:49.239Z,41.30
2019-05-20T20:13:16.033Z,41.70
2019-05-20T20:15:42.863Z,41.60
2019-05-20T20:18:09.831Z,42.20
2019-05-20T20:20:36.655Z,42.10
2019-05-20T20:23:03.726Z,42.00
2019-05-20T20:25:30.563Z,42.30
2019-05-20T20:27:57.400Z,42.10
2019-05-20T20:30:24.181Z,41.80
2019-05-20T20:32:51.002Z,41.70
2019-05-20T20:35:17.909Z,41.40
2019-05-20T20:37:44.708Z,41.30
2019-05-20T20:40:11.804Z,41.30
2019-05-20T20:42:38.687Z,40.60
2019-05-20T20:45:06.563Z,40.90
2019-05-20T20:47:41.194Z,40.80
2019-05-20T20:50:04.017Z,40.60
2019-05-20T20:52:32.526Z,40.30
2019-05-20T20:54:59.742Z,40.20
2019-05-20T20:57:26.840Z,40.40
2019-05-20T20:59:53.860Z,40.40
2019-05-20T21:02:20.676Z,40.50
2019-05-20T21:04:50.250Z,40.30
2019-05-20T21:07:17.042Z,40.30
2019-05-20T21:09:44.171Z,40.00
2019-05-20T21:12:11.237Z,39.80
2019-05-20T21:14:38.070Z,39.70
2019-05-20T21:17:05.063Z,39.90
2019-05-20T21:19:32.013Z,39.80
2019-05-20T21:21:58.851Z,39.70
2019-05-20T21:24:25.978Z,40.00
2019-05-20T21:26:52.859Z,40.20
2019-05-20T21:29:19.640Z,40.20
2019-05-20T21:31:46.651Z,40.10
2019-05-20T21:34:13.555Z,40.10
2019-05-20T21:36:47.881Z,40.10
2019-05-20T21:39:09.116Z,40.20
2019-05-20T21:41:35.900Z,40.20
2019-05-20T21:44:02.704Z,40.20
2019-05-20T21:46:29.842Z,40.10
2019-05-20T21:48:57.233Z,40.20
2019-05-20T21:51:24.199Z,40.20
2019-05-20T21:53:51.051Z,39.90
2019-05-20T21:56:18.042Z,39.70
2019-05-20T21:58:44.833Z,39.90
2019-05-20T22:01:11.653Z,39.70
2019-05-20T22:03:38.488Z,39.90
2019-05-20T22:06:05.313Z,39.90
2019-05-20T22:08:32.175Z,40.10
2019-05-20T22:10:59.300Z,40.30
2019-05-20T22:13:26.092Z,40.40
2019-05-20T22:15:53.187Z,40.40
2019-05-20T22:18:19.983Z,40.40
2019-05-20T22:20:46.769Z,40.60
2019-05-20T22:23:13.492Z,40.90
2019-05-20T22:25:40.284Z,42.90
2019-05-20T22:28:07.069Z,42.20
2019-05-20T22:30:34.216Z,41.80
2019-05-20T22:33:01.002Z,41.60
2019-05-20T22:35:27.964Z,41.60
2019-05-20T22:37:54.797Z,41.20
2019-05-20T22:40:21.622Z,41.30
2019-05-20T22:42:48.538Z,41.40
2019-05-20T22:45:15.855Z,41.60
2019-05-20T22:47:42.644Z,41.70
2019-05-20T22:50:09.841Z,41.70
2019-05-20T22:52:36.694Z,41.80
2019-05-20T22:55:04.737Z,41.90
2019-05-20T22:57:31.682Z,41.80
2019-05-20T22:59:58.524Z,41.40
2019-05-20T23:02:27.107Z,41.30
2019-05-20T23:04:53.926Z,41.20
2019-05-20T23:07:20.752Z,41.10
2019-05-20T23:09:47.542Z,41.10
2019-05-20T23:12:14.621Z,41.30
2019-05-20T23:14:41.437Z,41.20
2019-05-20T23:17:08.572Z,41.30
2019-05-20T23:19:35.367Z,41.10
2019-05-20T23:22:02.787Z,41.00
2019-05-20T23:24:29.591Z,41.00
2019-05-20T23:26:56.599Z,41.00
2019-05-20T23:29:23.498Z,41.10
2019-05-20T23:31:50.296Z,41.20
2019-05-20T23:34:17.085Z,41.40
2019-05-20T23:36:43.952Z,42.00
2019-05-20T23:39:10.759Z,42.10
2019-05-20T23:41:37.531Z,41.90
2019-05-20T23:44:04.469Z,41.70
2019-05-20T23:46:31.262Z,41.60
2019-05-20T23:48:58.051Z,41.60
2019-05-20T23:51:25.297Z,41.30
2019-05-20T23:53:52.381Z,41.20
2019-05-20T23:56:19.301Z,41.50
2019-05-20T23:58:46.503Z,41.30
